»·PEaware :: WAT306 KTUS-KSKX

WAT306 :: KTUS-KSKX

FLIGHT INFORMATION

Flight Status: Arrived
Operator:
Walker Air Transport
More flights by this operator :: More flights under this callsign
Pilot: Ethan S. (29221)
Aircraft: SOCATA TBM-900
(TBM9)
More flights by this aircraft type
Origin: KTUS Tucson Intl
United States
Destination: KSKX Taos Regl
United States
More flights between these airports :: More routes between these airports
Route: TUS8 MESCA SSO J104 FTI
File this flight plan on PilotEdge
Remarks:
Altitude:
(Current/Filed)
31,000ft
Speed:
(Current/Filed)
320kts
Departed: 27-Aug-20 04:59 PM
Arrived: 27-Aug-20 06:34 PM
Distance/Time
Traveled:
369nm/1:35
Distance/Time
To Go:
Arrived

Flight Plot

Page will automatically refresh every two minutes.

Flight plan parsing failed; only flown route is shown


Map Options




Map Legend


Flown Route
Filed Route
Departure Airport
Arrival Airport
Navaid (VOR, NDB)
Fix

Horizontal Profiles

Position Reports

Time Latitude Longitude Heading Altitude Ground
Speed
27-Aug-20 16:37 32.125555 -110.945308 314 2573ft 0kts
27-Aug-20 16:38 32.125555 -110.945308 314 2573ft 0kts
27-Aug-20 16:39 32.125554 -110.945308 314 2573ft 0kts
27-Aug-20 16:40 32.125554 -110.945308 314 2573ft 0kts
27-Aug-20 16:41 32.125554 -110.945308 314 2573ft 0kts
27-Aug-20 16:42 32.125554 -110.945308 314 2573ft 0kts
27-Aug-20 16:43 32.125555 -110.945308 314 2573ft 0kts
27-Aug-20 16:44 32.125555 -110.945308 314 2573ft 0kts
27-Aug-20 16:45 32.125555 -110.945308 314 2573ft 0kts
27-Aug-20 16:46 32.125555 -110.945308 314 2573ft 0kts
27-Aug-20 16:47 32.125555 -110.945308 314 2573ft 0kts
27-Aug-20 16:48 32.125555 -110.945308 314 2573ft 0kts
27-Aug-20 16:49 32.125555 -110.945308 314 2573ft 0kts
27-Aug-20 16:50 32.125057 -110.947160 185 2571ft 15kts
27-Aug-20 16:51 32.121796 -110.943534 134 2584ft 13kts
27-Aug-20 16:52 32.118022 -110.939118 135 2599ft 18kts
27-Aug-20 16:53 32.114135 -110.934539 134 2612ft 19kts
27-Aug-20 16:54 32.110087 -110.929816 135 2625ft 19kts
27-Aug-20 16:55 32.105769 -110.924756 135 2642ft 23kts
27-Aug-20 16:56 32.102979 -110.921883 225 2650ft 11kts
27-Aug-20 16:57 32.102281 -110.923152 311 2648ft 15kts
27-Aug-20 16:58 32.122619 -110.946786 314 3910ft 132kts
27-Aug-20 16:59 32.147080 -110.932489 110 6165ft 157kts
27-Aug-20 17:00 32.111562 -110.914903 184 8827ft 147kts
27-Aug-20 17:01 32.081468 -110.885108 122 11554ft 156kts
27-Aug-20 17:02 32.059679 -110.838629 122 14055ft 160kts
27-Aug-20 17:03 32.036784 -110.789655 122 16322ft 166kts
27-Aug-20 17:04 32.009602 -110.731728 121 17023ft 233kts
27-Aug-20 17:05 31.980799 -110.670012 122 20056ft 175kts
27-Aug-20 17:06 31.955410 -110.615990 122 22244ft 183kts
27-Aug-20 17:07 31.928740 -110.559260 123 24734ft 192kts
27-Aug-20 17:08 31.901112 -110.500120 116 27155ft 201kts
27-Aug-20 17:09 31.919819 -110.435224 48 29284ft 221kts
27-Aug-20 17:10 31.963740 -110.377312 48 31019ft 238kts
27-Aug-20 17:11 32.017913 -110.305650 48 31017ft 304kts
27-Aug-20 17:12 32.078852 -110.224903 48 30985ft 331kts
27-Aug-20 17:13 32.142517 -110.140356 48 31000ft 339kts
27-Aug-20 17:14 32.206684 -110.054940 48 30960ft 343kts
27-Aug-20 17:15 32.271261 -109.968779 48 30890ft 345kts
27-Aug-20 17:16 32.336053 -109.882128 48 30825ft 346kts
27-Aug-20 17:17 32.400727 -109.795434 48 30826ft 345kts
27-Aug-20 17:18 32.464870 -109.709242 48 30826ft 344kts
27-Aug-20 17:19 32.528493 -109.623552 48 30825ft 339kts
27-Aug-20 17:20 32.591667 -109.538266 48 30827ft 337kts
27-Aug-20 17:21 32.654274 -109.453555 48 30827ft 337kts
27-Aug-20 17:22 32.716355 -109.369358 48 30828ft 336kts
27-Aug-20 17:23 32.777989 -109.285581 49 30826ft 336kts
27-Aug-20 17:24 32.839765 -109.201417 49 30826ft 336kts
27-Aug-20 17:25 32.902507 -109.115740 49 30826ft 337kts
27-Aug-20 17:26 32.965265 -109.029826 49 30828ft 339kts
27-Aug-20 17:27 33.028278 -108.943316 48 30834ft 340kts
27-Aug-20 17:28 33.090687 -108.857528 47 30917ft 334kts
27-Aug-20 17:29 33.152027 -108.772985 47 30999ft 329kts
27-Aug-20 17:30 33.212408 -108.689555 47 31064ft 327kts
27-Aug-20 17:31 33.272882 -108.605802 47 31065ft 328kts
27-Aug-20 17:32 33.333315 -108.521909 47 31065ft 328kts
27-Aug-20 17:33 33.393968 -108.437523 47 31065ft 329kts
27-Aug-20 17:34 33.454759 -108.352744 47 31065ft 329kts
27-Aug-20 17:35 33.515378 -108.267999 48 31063ft 329kts
27-Aug-20 17:36 33.575602 -108.183616 48 31052ft 329kts
27-Aug-20 17:37 33.635981 -108.098813 48 31024ft 329kts
27-Aug-20 17:38 33.696546 -108.013547 48 31003ft 329kts
27-Aug-20 17:39 33.756756 -107.928583 48 31000ft 329kts
27-Aug-20 17:40 33.817686 -107.842395 48 31000ft 329kts
27-Aug-20 17:41 33.878601 -107.756015 48 31000ft 329kts
27-Aug-20 17:42 33.939799 -107.669028 48 31004ft 329kts
27-Aug-20 17:43 34.001710 -107.580814 48 31009ft 329kts
27-Aug-20 17:44 34.064284 -107.491430 48 31010ft 329kts
27-Aug-20 17:45 34.125737 -107.403429 48 31010ft 329kts
27-Aug-20 17:46 34.186010 -107.316907 48 31008ft 329kts
27-Aug-20 17:47 34.245829 -107.230817 48 31008ft 329kts
27-Aug-20 17:48 34.305595 -107.144613 48 31008ft 329kts
27-Aug-20 17:49 34.364444 -107.057085 46 31008ft 328kts
27-Aug-20 17:50 34.424771 -106.970925 48 31010ft 329kts
27-Aug-20 17:51 34.484386 -106.884284 48 31019ft 329kts
27-Aug-20 17:52 34.544271 -106.797106 48 31039ft 330kts
27-Aug-20 17:53 34.605227 -106.708151 48 31046ft 330kts
27-Aug-20 17:54 34.667123 -106.617589 48 31046ft 331kts
27-Aug-20 17:55 34.728978 -106.526854 48 31047ft 331kts
27-Aug-20 17:56 34.790705 -106.436072 48 31047ft 331kts
27-Aug-20 17:57 34.851640 -106.346223 49 31047ft 331kts
27-Aug-20 17:58 34.912647 -106.256035 49 31045ft 331kts
27-Aug-20 17:59 34.973458 -106.165904 49 31045ft 331kts
27-Aug-20 18:00 35.033094 -106.077296 49 31046ft 332kts
27-Aug-20 18:01 35.092513 -105.988781 49 31074ft 333kts
27-Aug-20 18:02 35.151837 -105.900179 49 31103ft 332kts
27-Aug-20 18:03 35.211792 -105.810417 49 31110ft 333kts
27-Aug-20 18:04 35.271367 -105.720984 49 31123ft 333kts
27-Aug-20 18:05 35.331034 -105.631186 49 31157ft 333kts
27-Aug-20 18:07 35.392070 -105.539082 49 31184ft 333kts
27-Aug-20 18:08 35.452196 -105.448112 49 31184ft 334kts
27-Aug-20 18:09 35.512291 -105.356948 49 31185ft 334kts
27-Aug-20 18:10 35.571990 -105.266146 49 31181ft 334kts
27-Aug-20 18:11 35.643772 -105.185094 19 28982ft 351kts
27-Aug-20 18:12 35.739743 -105.187106 333 26401ft 338kts
27-Aug-20 18:13 35.822574 -105.245166 329 24180ft 324kts
27-Aug-20 18:14 35.898249 -105.295675 329 23397ft 304kts
27-Aug-20 18:15 35.976067 -105.347688 329 21362ft 316kts
27-Aug-20 18:16 36.053726 -105.399676 330 19298ft 294kts
27-Aug-20 18:17 36.125072 -105.447555 330 17217ft 278kts
27-Aug-20 18:18 36.193788 -105.493765 330 15265ft 268kts
27-Aug-20 18:19 36.241986 -105.552318 317 15210ft 225kts
27-Aug-20 18:20 36.289442 -105.605344 316 15014ft 238kts
27-Aug-20 18:21 36.344249 -105.668111 315 13638ft 276kts
27-Aug-20 18:22 36.404515 -105.737716 315 12227ft 298kts
27-Aug-20 18:23 36.466341 -105.809188 315 11179ft 283kts
27-Aug-20 18:24 36.523401 -105.874793 316 11181ft 266kts
27-Aug-20 18:24 36.569972 -105.928145 317 11181ft 263kts
27-Aug-20 18:26 36.624684 -105.878553 110 11163ft 246kts
27-Aug-20 18:27 36.589784 -105.836959 137 10688ft 126kts
27-Aug-20 18:27 36.570196 -105.814104 139 10199ft 110kts
27-Aug-20 18:28 36.547624 -105.788255 139 9565ft 106kts
27-Aug-20 18:30 36.522189 -105.759170 138 8876ft 103kts
27-Aug-20 18:30 36.504354 -105.738791 138 8397ft 102kts
27-Aug-20 18:31 36.483048 -105.714464 137 7830ft 100kts
27-Aug-20 18:32 36.462051 -105.690499 136 7292ft 96kts
27-Aug-20 18:33 36.450854 -105.676544 48 7091ft 11kts
27-Aug-20 18:34 36.453833 -105.679264 318 7091ft 16kts
27-Aug-20 18:35 36.456815 -105.676498 56 7091ft 24kts
27-Aug-20 18:36 36.454680 -105.682092 137 7094ft 78kts
27-Aug-20 18:37 36.458909 -105.672595 58 7091ft 15kts
27-Aug-20 18:38 36.459881 -105.672036 54 7091ft 0kts
27-Aug-20 18:39 36.459881 -105.672036 54 7091ft 0kts
27-Aug-20 18:40 36.459881 -105.672036 54 7091ft 0kts
27-Aug-20 18:41 36.459881 -105.672036 54 7091ft 0kts
27-Aug-20 18:42 36.459881 -105.672036 54 7091ft 0kts
27-Aug-20 18:43 36.459881 -105.672036 54 7091ft 0kts
27-Aug-20 18:44 36.459881 -105.672036 54 7091ft 0kts
27-Aug-20 18:45 36.459881 -105.672036 54 7091ft 0kts
27-Aug-20 18:46 36.459881 -105.672036 54 7091ft 0kts
27-Aug-20 18:47 36.459881 -105.672036 54 7091ft 0kts

Navigation Log

Ident Type
Flight plan parsing failed, navigation log unavailable